Terminal Aerodrome Forecast
Issued by NWS Cleveland, OH

Home | Current Version | Previous Version | Graphics & Text | Print | Product List | Glossary On
Versions: 1 2 3 4 5 6 7 8 9 10 11 12 13 14 15 16 17 18 19 20 21 22 23 24 25 26 27 28 29 30 31 32 33
697
FTUS41 KCLE 121133
TAFCLE
TAF
KCLE 121133Z 1212/1318 30018G28KT 5SM -SN OVC025
      TEMPO 1212/1214 2SM -SN BKN015
     FM121400 30020G30KT P6SM OVC025
     FM121700 30022G32KT P6SM SCT025 OVC040
     FM122100 30015G25KT P6SM -SHSN OVC020=

USA.gov is the U.S. government's official web portal to all federal, state and local government web resources and services.